sensor_id;sensor_type;location;lat;lon;timestamp;P1;durP1;ratioP1;P2;durP2;ratioP2
23539;SDS011;11947;50.810;4.394;2022-12-29T00:02:02;6.50;;;1.90;;
23539;SDS011;11947;50.810;4.394;2022-12-29T00:04:27;5.85;;;2.30;;
23539;SDS011;11947;50.810;4.394;2022-12-29T00:06:53;5.10;;;2.20;;
23539;SDS011;11947;50.810;4.394;2022-12-29T00:09:19;4.88;;;1.90;;
23539;SDS011;11947;50.810;4.394;2022-12-29T00:11:44;4.35;;;1.77;;
23539;SDS011;11947;50.810;4.394;2022-12-29T00:14:11;7.13;;;1.67;;
23539;SDS011;11947;50.810;4.394;2022-12-29T00:16:55;2.13;;;1.60;;
23539;SDS011;11947;50.810;4.394;2022-12-29T00:19:21;3.80;;;1.63;;
23539;SDS011;11947;50.810;4.394;2022-12-29T00:22:07;3.90;;;1.40;;
23539;SDS011;11947;50.810;4.394;2022-12-29T00:24:53;4.53;;;1.33;;
23539;SDS011;11947;50.810;4.394;2022-12-29T00:27:34;5.03;;;1.30;;
23539;SDS011;11947;50.810;4.394;2022-12-29T00:30:19;3.65;;;1.13;;
23539;SDS011;11947;50.810;4.394;2022-12-29T00:33:11;3.75;;;1.15;;
23539;SDS011;11947;50.810;4.394;2022-12-29T00:35:58;4.43;;;1.20;;
23539;SDS011;11947;50.810;4.394;2022-12-29T00:38:35;6.50;;;1.25;;
23539;SDS011;11947;50.810;4.394;2022-12-29T00:41:22;4.20;;;1.20;;
23539;SDS011;11947;50.810;4.394;2022-12-29T00:44:06;4.95;;;1.40;;
23539;SDS011;11947;50.810;4.394;2022-12-29T00:46:38;7.32;;;1.35;;
23539;SDS011;11947;50.810;4.394;2022-12-29T00:49:06;3.40;;;1.30;;
23539;SDS011;11947;50.810;4.394;2022-12-29T00:51:52;4.70;;;1.30;;
23539;SDS011;11947;50.810;4.394;2022-12-29T00:54:18;6.43;;;1.30;;
23539;SDS011;11947;50.810;4.394;2022-12-29T00:56:52;8.18;;;1.77;;
23539;SDS011;11947;50.810;4.394;2022-12-29T00:59:18;3.20;;;1.17;;
23539;SDS011;11947;50.810;4.394;2022-12-29T01:01:45;7.10;;;1.33;;
23539;SDS011;11947;50.810;4.394;2022-12-29T01:04:11;7.80;;;1.52;;
23539;SDS011;11947;50.810;4.394;2022-12-29T01:06:38;7.43;;;1.73;;
23539;SDS011;11947;50.810;4.394;2022-12-29T01:09:05;3.28;;;1.40;;
23539;SDS011;11947;50.810;4.394;2022-12-29T01:11:50;9.32;;;1.42;;
23539;SDS011;11947;50.810;4.394;2022-12-29T01:14:16;5.50;;;1.50;;
23539;SDS011;11947;50.810;4.394;2022-12-29T01:16:42;4.28;;;1.42;;
23539;SDS011;11947;50.810;4.394;2022-12-29T01:19:08;4.95;;;1.33;;
23539;SDS011;11947;50.810;4.394;2022-12-29T01:21:34;265.90;;;11.07;;
23539;SDS011;11947;50.810;4.394;2022-12-29T01:23:59;4.15;;;1.50;;
23539;SDS011;11947;50.810;4.394;2022-12-29T01:26:25;9.18;;;2.10;;
23539;SDS011;11947;50.810;4.394;2022-12-29T01:28:50;9.40;;;2.08;;
23539;SDS011;11947;50.810;4.394;2022-12-29T01:31:16;18.70;;;2.40;;
23539;SDS011;11947;50.810;4.394;2022-12-29T01:33:43;7.47;;;2.20;;
23539;SDS011;11947;50.810;4.394;2022-12-29T01:36:10;4.80;;;1.73;;
23539;SDS011;11947;50.810;4.394;2022-12-29T01:38:38;5.88;;;1.90;;
23539;SDS011;11947;50.810;4.394;2022-12-29T01:41:04;6.95;;;2.20;;
23539;SDS011;11947;50.810;4.394;2022-12-29T01:43:42;5.55;;;2.22;;
23539;SDS011;11947;50.810;4.394;2022-12-29T01:48:49;6.15;;;2.05;;
23539;SDS011;11947;50.810;4.394;2022-12-29T01:51:18;9.77;;;2.13;;
23539;SDS011;11947;50.810;4.394;2022-12-29T01:53:46;5.75;;;2.20;;
23539;SDS011;11947;50.810;4.394;2022-12-29T01:56:12;5.93;;;2.10;;
23539;SDS011;11947;50.810;4.394;2022-12-29T01:58:42;8.50;;;1.70;;
23539;SDS011;11947;50.810;4.394;2022-12-29T02:01:11;4.75;;;1.42;;
23539;SDS011;11947;50.810;4.394;2022-12-29T02:03:37;3.40;;;1.20;;
23539;SDS011;11947;50.810;4.394;2022-12-29T02:09:02;5.28;;;1.00;;
23539;SDS011;11947;50.810;4.394;2022-12-29T02:11:28;3.08;;;1.30;;
23539;SDS011;11947;50.810;4.394;2022-12-29T02:13:56;4.22;;;1.00;;
23539;SDS011;11947;50.810;4.394;2022-12-29T02:27:26;2.47;;;1.08;;
23539;SDS011;11947;50.810;4.394;2022-12-29T02:35:59;6.07;;;1.10;;
23539;SDS011;11947;50.810;4.394;2022-12-29T02:46:28;6.60;;;0.95;;
23539;SDS011;11947;50.810;4.394;2022-12-29T02:49:11;7.75;;;1.00;;
23539;SDS011;11947;50.810;4.394;2022-12-29T02:54:16;3.50;;;0.50;;
23539;SDS011;11947;50.810;4.394;2022-12-29T02:57:02;4.18;;;0.88;;
23539;SDS011;11947;50.810;4.394;2022-12-29T02:59:30;5.65;;;1.08;;
23539;SDS011;11947;50.810;4.394;2022-12-29T03:02:00;3.72;;;0.70;;
23539;SDS011;11947;50.810;4.394;2022-12-29T03:13:19;13.15;;;1.73;;
23539;SDS011;11947;50.810;4.394;2022-12-29T03:16:28;8.20;;;0.70;;
23539;SDS011;11947;50.810;4.394;2022-12-29T03:19:08;4.90;;;0.90;;
23539;SDS011;11947;50.810;4.394;2022-12-29T03:21:56;8.20;;;0.80;;
23539;SDS011;11947;50.810;4.394;2022-12-29T03:24:45;5.97;;;0.75;;
23539;SDS011;11947;50.810;4.394;2022-12-29T03:27:17;4.00;;;0.88;;
23539;SDS011;11947;50.810;4.394;2022-12-29T03:29:49;5.15;;;1.00;;
23539;SDS011;11947;50.810;4.394;2022-12-29T03:32:23;4.53;;;1.00;;
23539;SDS011;11947;50.810;4.394;2022-12-29T03:34:53;5.15;;;0.95;;
23539;SDS011;11947;50.810;4.394;2022-12-29T03:37:24;5.35;;;1.25;;
23539;SDS011;11947;50.810;4.394;2022-12-29T03:39:54;5.35;;;0.95;;
23539;SDS011;11947;50.810;4.394;2022-12-29T03:42:21;7.50;;;1.40;;
23539;SDS011;11947;50.810;4.394;2022-12-29T03:44:52;4.07;;;1.20;;
23539;SDS011;11947;50.810;4.394;2022-12-29T03:47:20;7.78;;;1.35;;
23539;SDS011;11947;50.810;4.394;2022-12-29T03:49:45;10.90;;;1.40;;
23539;SDS011;11947;50.810;4.394;2022-12-29T03:52:12;8.07;;;1.50;;
23539;SDS011;11947;50.810;4.394;2022-12-29T03:54:37;11.50;;;1.63;;
23539;SDS011;11947;50.810;4.394;2022-12-29T03:57:03;10.45;;;1.50;;
23539;SDS011;11947;50.810;4.394;2022-12-29T03:59:29;11.73;;;1.70;;
23539;SDS011;11947;50.810;4.394;2022-12-29T04:01:54;10.07;;;1.80;;
23539;SDS011;11947;50.810;4.394;2022-12-29T04:04:20;5.22;;;1.30;;
23539;SDS011;11947;50.810;4.394;2022-12-29T04:06:46;10.15;;;1.55;;
23539;SDS011;11947;50.810;4.394;2022-12-29T04:09:11;13.63;;;1.90;;
23539;SDS011;11947;50.810;4.394;2022-12-29T04:11:37;15.40;;;1.52;;
23539;SDS011;11947;50.810;4.394;2022-12-29T04:14:02;12.10;;;1.52;;
23539;SDS011;11947;50.810;4.394;2022-12-29T04:16:28;12.52;;;1.42;;
23539;SDS011;11947;50.810;4.394;2022-12-29T04:18:54;10.50;;;1.40;;
23539;SDS011;11947;50.810;4.394;2022-12-29T04:21:19;10.63;;;1.60;;
23539;SDS011;11947;50.810;4.394;2022-12-29T04:23:45;7.85;;;1.27;;
23539;SDS011;11947;50.810;4.394;2022-12-29T04:26:10;8.52;;;1.40;;
23539;SDS011;11947;50.810;4.394;2022-12-29T04:28:36;10.40;;;1.30;;
23539;SDS011;11947;50.810;4.394;2022-12-29T04:31:02;8.68;;;1.65;;
23539;SDS011;11947;50.810;4.394;2022-12-29T04:33:28;10.18;;;1.38;;
23539;SDS011;11947;50.810;4.394;2022-12-29T04:35:54;11.75;;;1.80;;
23539;SDS011;11947;50.810;4.394;2022-12-29T04:38:21;7.10;;;1.13;;
23539;SDS011;11947;50.810;4.394;2022-12-29T04:40:48;10.45;;;1.40;;
23539;SDS011;11947;50.810;4.394;2022-12-29T04:43:14;7.22;;;1.27;;
23539;SDS011;11947;50.810;4.394;2022-12-29T04:45:44;6.38;;;1.50;;
23539;SDS011;11947;50.810;4.394;2022-12-29T04:48:13;6.25;;;1.52;;
23539;SDS011;11947;50.810;4.394;2022-12-29T04:50:40;11.13;;;1.63;;
23539;SDS011;11947;50.810;4.394;2022-12-29T04:53:06;11.27;;;1.65;;
23539;SDS011;11947;50.810;4.394;2022-12-29T04:55:32;9.95;;;1.58;;
23539;SDS011;11947;50.810;4.394;2022-12-29T04:57:58;14.52;;;1.75;;
23539;SDS011;11947;50.810;4.394;2022-12-29T05:00:23;11.63;;;2.65;;
23539;SDS011;11947;50.810;4.394;2022-12-29T05:02:49;5.68;;;1.40;;
23539;SDS011;11947;50.810;4.394;2022-12-29T05:05:15;16.63;;;1.70;;
23539;SDS011;11947;50.810;4.394;2022-12-29T05:07:41;11.20;;;1.40;;
23539;SDS011;11947;50.810;4.394;2022-12-29T05:10:07;8.23;;;1.70;;
23539;SDS011;11947;50.810;4.394;2022-12-29T05:12:33;9.93;;;1.38;;
23539;SDS011;11947;50.810;4.394;2022-12-29T05:15:00;11.10;;;1.63;;
23539;SDS011;11947;50.810;4.394;2022-12-29T05:17:28;7.63;;;1.45;;
23539;SDS011;11947;50.810;4.394;2022-12-29T05:19:54;86.43;;;6.00;;
23539;SDS011;11947;50.810;4.394;2022-12-29T05:22:19;12.77;;;1.40;;
23539;SDS011;11947;50.810;4.394;2022-12-29T05:24:45;13.38;;;1.92;;
23539;SDS011;11947;50.810;4.394;2022-12-29T05:27:11;11.80;;;1.90;;
23539;SDS011;11947;50.810;4.394;2022-12-29T05:29:37;11.75;;;1.45;;
23539;SDS011;11947;50.810;4.394;2022-12-29T05:32:02;11.85;;;1.58;;
23539;SDS011;11947;50.810;4.394;2022-12-29T05:34:28;15.32;;;1.83;;
23539;SDS011;11947;50.810;4.394;2022-12-29T05:36:54;15.07;;;2.08;;
23539;SDS011;11947;50.810;4.394;2022-12-29T05:39:19;10.05;;;1.30;;
23539;SDS011;11947;50.810;4.394;2022-12-29T05:41:45;11.70;;;1.35;;
23539;SDS011;11947;50.810;4.394;2022-12-29T05:44:11;10.30;;;1.80;;
23539;SDS011;11947;50.810;4.394;2022-12-29T05:46:37;13.48;;;1.90;;
23539;SDS011;11947;50.810;4.394;2022-12-29T05:49:02;15.15;;;1.83;;
23539;SDS011;11947;50.810;4.394;2022-12-29T05:51:28;13.90;;;1.98;;
23539;SDS011;11947;50.810;4.394;2022-12-29T05:53:54;13.68;;;1.60;;
23539;SDS011;11947;50.810;4.394;2022-12-29T05:56:19;19.55;;;1.52;;
23539;SDS011;11947;50.810;4.394;2022-12-29T05:58:45;16.92;;;1.92;;
23539;SDS011;11947;50.810;4.394;2022-12-29T06:01:11;13.40;;;2.15;;
23539;SDS011;11947;50.810;4.394;2022-12-29T06:03:36;10.90;;;1.45;;
23539;SDS011;11947;50.810;4.394;2022-12-29T06:06:02;16.35;;;1.95;;
23539;SDS011;11947;50.810;4.394;2022-12-29T06:08:27;12.93;;;1.75;;
23539;SDS011;11947;50.810;4.394;2022-12-29T06:10:53;16.80;;;1.60;;
23539;SDS011;11947;50.810;4.394;2022-12-29T06:13:19;19.33;;;2.17;;
23539;SDS011;11947;50.810;4.394;2022-12-29T06:15:44;19.40;;;1.95;;
23539;SDS011;11947;50.810;4.394;2022-12-29T06:18:10;15.52;;;1.70;;
23539;SDS011;11947;50.810;4.394;2022-12-29T06:20:35;13.90;;;1.92;;
23539;SDS011;11947;50.810;4.394;2022-12-29T06:23:01;10.95;;;2.03;;
23539;SDS011;11947;50.810;4.394;2022-12-29T06:25:27;13.48;;;1.52;;
23539;SDS011;11947;50.810;4.394;2022-12-29T06:27:53;14.70;;;1.52;;
23539;SDS011;11947;50.810;4.394;2022-12-29T06:30:19;13.75;;;1.60;;
23539;SDS011;11947;50.810;4.394;2022-12-29T06:32:44;13.20;;;1.58;;
23539;SDS011;11947;50.810;4.394;2022-12-29T06:35:10;16.77;;;1.88;;
23539;SDS011;11947;50.810;4.394;2022-12-29T06:37:36;13.82;;;1.67;;
23539;SDS011;11947;50.810;4.394;2022-12-29T06:40:02;14.15;;;1.75;;
23539;SDS011;11947;50.810;4.394;2022-12-29T06:42:28;13.27;;;2.05;;
23539;SDS011;11947;50.810;4.394;2022-12-29T06:44:53;19.35;;;1.77;;
23539;SDS011;11947;50.810;4.394;2022-12-29T06:47:19;15.43;;;2.35;;
23539;SDS011;11947;50.810;4.394;2022-12-29T06:49:44;15.80;;;1.88;;
23539;SDS011;11947;50.810;4.394;2022-12-29T06:52:10;14.48;;;2.13;;
23539;SDS011;11947;50.810;4.394;2022-12-29T06:54:36;14.15;;;1.98;;
23539;SDS011;11947;50.810;4.394;2022-12-29T06:57:01;15.60;;;2.13;;
23539;SDS011;11947;50.810;4.394;2022-12-29T06:59:27;11.52;;;1.50;;
23539;SDS011;11947;50.810;4.394;2022-12-29T07:01:53;8.38;;;1.75;;
23539;SDS011;11947;50.810;4.394;2022-12-29T07:04:18;11.88;;;1.83;;
23539;SDS011;11947;50.810;4.394;2022-12-29T07:06:44;14.20;;;1.65;;
23539;SDS011;11947;50.810;4.394;2022-12-29T07:09:10;17.60;;;1.88;;
23539;SDS011;11947;50.810;4.394;2022-12-29T07:11:35;12.85;;;1.90;;
23539;SDS011;11947;50.810;4.394;2022-12-29T07:14:01;16.80;;;1.95;;
23539;SDS011;11947;50.810;4.394;2022-12-29T07:16:28;9.98;;;1.70;;
23539;SDS011;11947;50.810;4.394;2022-12-29T07:18:54;12.77;;;1.85;;
23539;SDS011;11947;50.810;4.394;2022-12-29T07:21:21;11.48;;;1.77;;
23539;SDS011;11947;50.810;4.394;2022-12-29T07:23:47;13.55;;;1.80;;
23539;SDS011;11947;50.810;4.394;2022-12-29T07:26:13;16.13;;;2.28;;
23539;SDS011;11947;50.810;4.394;2022-12-29T07:28:40;14.82;;;2.20;;
23539;SDS011;11947;50.810;4.394;2022-12-29T07:31:07;14.27;;;2.45;;
23539;SDS011;11947;50.810;4.394;2022-12-29T07:33:43;14.52;;;2.33;;
23539;SDS011;11947;50.810;4.394;2022-12-29T07:36:10;15.93;;;2.22;;
23539;SDS011;11947;50.810;4.394;2022-12-29T07:38:36;16.40;;;2.10;;
23539;SDS011;11947;50.810;4.394;2022-12-29T07:41:02;16.75;;;1.90;;
23539;SDS011;11947;50.810;4.394;2022-12-29T07:43:28;14.13;;;1.90;;
23539;SDS011;11947;50.810;4.394;2022-12-29T07:45:54;14.73;;;1.70;;
23539;SDS011;11947;50.810;4.394;2022-12-29T07:48:19;13.40;;;2.08;;
23539;SDS011;11947;50.810;4.394;2022-12-29T07:50:45;17.60;;;2.40;;
23539;SDS011;11947;50.810;4.394;2022-12-29T07:53:10;16.20;;;1.98;;
23539;SDS011;11947;50.810;4.394;2022-12-29T07:55:36;18.08;;;2.55;;
23539;SDS011;11947;50.810;4.394;2022-12-29T07:58:02;15.60;;;2.05;;
23539;SDS011;11947;50.810;4.394;2022-12-29T08:00:27;13.25;;;1.92;;
23539;SDS011;11947;50.810;4.394;2022-12-29T08:02:53;15.43;;;2.20;;
23539;SDS011;11947;50.810;4.394;2022-12-29T08:05:18;13.52;;;1.65;;
23539;SDS011;11947;50.810;4.394;2022-12-29T08:07:44;13.52;;;1.95;;
23539;SDS011;11947;50.810;4.394;2022-12-29T08:10:11;15.13;;;2.17;;
23539;SDS011;11947;50.810;4.394;2022-12-29T08:12:38;19.33;;;1.90;;
23539;SDS011;11947;50.810;4.394;2022-12-29T08:15:04;18.90;;;2.30;;
23539;SDS011;11947;50.810;4.394;2022-12-29T08:17:31;11.23;;;1.67;;
23539;SDS011;11947;50.810;4.394;2022-12-29T08:19:57;15.13;;;2.10;;
23539;SDS011;11947;50.810;4.394;2022-12-29T08:22:23;17.80;;;2.22;;
23539;SDS011;11947;50.810;4.394;2022-12-29T08:24:49;14.82;;;1.95;;
23539;SDS011;11947;50.810;4.394;2022-12-29T08:27:14;13.55;;;1.80;;
23539;SDS011;11947;50.810;4.394;2022-12-29T08:29:40;13.82;;;1.90;;
23539;SDS011;11947;50.810;4.394;2022-12-29T08:32:05;11.50;;;1.90;;
23539;SDS011;11947;50.810;4.394;2022-12-29T08:34:31;15.48;;;2.38;;
23539;SDS011;11947;50.810;4.394;2022-12-29T08:36:57;22.02;;;2.03;;
23539;SDS011;11947;50.810;4.394;2022-12-29T08:39:23;18.85;;;1.85;;
23539;SDS011;11947;50.810;4.394;2022-12-29T08:41:48;21.55;;;2.50;;
23539;SDS011;11947;50.810;4.394;2022-12-29T08:44:14;15.85;;;2.10;;
23539;SDS011;11947;50.810;4.394;2022-12-29T08:46:39;15.63;;;2.00;;
23539;SDS011;11947;50.810;4.394;2022-12-29T08:49:05;12.70;;;2.20;;
23539;SDS011;11947;50.810;4.394;2022-12-29T08:51:30;19.13;;;2.40;;
23539;SDS011;11947;50.810;4.394;2022-12-29T08:53:56;14.13;;;2.00;;
23539;SDS011;11947;50.810;4.394;2022-12-29T08:56:22;14.23;;;1.90;;
23539;SDS011;11947;50.810;4.394;2022-12-29T08:58:49;18.45;;;2.72;;
23539;SDS011;11947;50.810;4.394;2022-12-29T09:01:15;14.35;;;2.22;;
23539;SDS011;11947;50.810;4.394;2022-12-29T09:03:40;20.20;;;2.80;;
23539;SDS011;11947;50.810;4.394;2022-12-29T09:06:06;25.88;;;2.70;;
23539;SDS011;11947;50.810;4.394;2022-12-29T09:08:32;17.83;;;2.47;;
23539;SDS011;11947;50.810;4.394;2022-12-29T09:11:11;17.13;;;2.22;;
23539;SDS011;11947;50.810;4.394;2022-12-29T09:13:42;17.67;;;2.35;;
23539;SDS011;11947;50.810;4.394;2022-12-29T09:16:08;15.77;;;2.42;;
23539;SDS011;11947;50.810;4.394;2022-12-29T09:18:36;20.20;;;2.30;;
23539;SDS011;11947;50.810;4.394;2022-12-29T09:21:03;17.00;;;2.55;;
23539;SDS011;11947;50.810;4.394;2022-12-29T09:23:30;22.52;;;2.47;;
23539;SDS011;11947;50.810;4.394;2022-12-29T09:25:56;18.42;;;2.40;;
23539;SDS011;11947;50.810;4.394;2022-12-29T09:28:21;19.05;;;2.72;;
23539;SDS011;11947;50.810;4.394;2022-12-29T09:30:48;18.80;;;1.90;;
23539;SDS011;11947;50.810;4.394;2022-12-29T09:33:14;17.00;;;2.55;;
23539;SDS011;11947;50.810;4.394;2022-12-29T09:35:43;15.88;;;2.00;;
23539;SDS011;11947;50.810;4.394;2022-12-29T09:38:10;25.67;;;2.63;;
23539;SDS011;11947;50.810;4.394;2022-12-29T09:40:36;16.02;;;2.22;;
23539;SDS011;11947;50.810;4.394;2022-12-29T09:43:19;21.30;;;2.53;;
23539;SDS011;11947;50.810;4.394;2022-12-29T09:45:56;15.80;;;2.30;;
23539;SDS011;11947;50.810;4.394;2022-12-29T09:48:27;16.63;;;2.13;;
23539;SDS011;11947;50.810;4.394;2022-12-29T09:50:59;21.20;;;2.80;;
23539;SDS011;11947;50.810;4.394;2022-12-29T09:55:57;21.60;;;2.83;;
23539;SDS011;11947;50.810;4.394;2022-12-29T09:58:34;14.98;;;2.03;;
23539;SDS011;11947;50.810;4.394;2022-12-29T10:01:23;14.40;;;2.35;;
23539;SDS011;11947;50.810;4.394;2022-12-29T10:03:55;20.58;;;2.85;;
23539;SDS011;11947;50.810;4.394;2022-12-29T10:17:13;22.50;;;3.50;;
23539;SDS011;11947;50.810;4.394;2022-12-29T10:20:05;17.38;;;2.75;;
23539;SDS011;11947;50.810;4.394;2022-12-29T10:25:31;21.13;;;3.05;;
23539;SDS011;11947;50.810;4.394;2022-12-29T10:28:03;12.90;;;2.13;;
23539;SDS011;11947;50.810;4.394;2022-12-29T10:30:42;16.85;;;2.47;;
23539;SDS011;11947;50.810;4.394;2022-12-29T10:33:11;20.80;;;2.85;;
23539;SDS011;11947;50.810;4.394;2022-12-29T10:38:30;20.73;;;3.15;;
23539;SDS011;11947;50.810;4.394;2022-12-29T10:41:23;20.38;;;3.17;;
23539;SDS011;11947;50.810;4.394;2022-12-29T10:43:54;25.20;;;2.65;;
23539;SDS011;11947;50.810;4.394;2022-12-29T10:46:27;15.43;;;2.85;;
23539;SDS011;11947;50.810;4.394;2022-12-29T10:48:57;22.08;;;3.45;;
23539;SDS011;11947;50.810;4.394;2022-12-29T10:51:24;19.90;;;3.45;;
23539;SDS011;11947;50.810;4.394;2022-12-29T10:53:55;19.70;;;3.80;;
23539;SDS011;11947;50.810;4.394;2022-12-29T10:56:29;20.75;;;2.97;;
23539;SDS011;11947;50.810;4.394;2022-12-29T10:59:24;17.27;;;2.50;;
23539;SDS011;11947;50.810;4.394;2022-12-29T11:04:43;15.05;;;2.63;;
23539;SDS011;11947;50.810;4.394;2022-12-29T11:07:17;18.50;;;2.75;;
23539;SDS011;11947;50.810;4.394;2022-12-29T11:09:45;17.27;;;3.10;;
23539;SDS011;11947;50.810;4.394;2022-12-29T11:12:26;13.25;;;2.17;;
23539;SDS011;11947;50.810;4.394;2022-12-29T11:17:49;19.38;;;2.75;;
23539;SDS011;11947;50.810;4.394;2022-12-29T11:20:32;13.63;;;2.30;;
23539;SDS011;11947;50.810;4.394;2022-12-29T11:23:01;18.23;;;2.78;;
23539;SDS011;11947;50.810;4.394;2022-12-29T11:25:28;12.20;;;2.30;;
23539;SDS011;11947;50.810;4.394;2022-12-29T11:28:14;13.23;;;2.35;;
23539;SDS011;11947;50.810;4.394;2022-12-29T11:30:40;16.75;;;2.72;;
23539;SDS011;11947;50.810;4.394;2022-12-29T11:33:08;17.25;;;2.67;;
23539;SDS011;11947;50.810;4.394;2022-12-29T11:35:56;21.20;;;3.22;;
23539;SDS011;11947;50.810;4.394;2022-12-29T11:38:25;26.27;;;3.88;;
23539;SDS011;11947;50.810;4.394;2022-12-29T11:40:57;19.83;;;3.13;;
23539;SDS011;11947;50.810;4.394;2022-12-29T11:46:00;20.65;;;2.55;;
23539;SDS011;11947;50.810;4.394;2022-12-29T11:48:33;15.27;;;2.67;;
23539;SDS011;11947;50.810;4.394;2022-12-29T11:51:04;18.60;;;2.28;;
23539;SDS011;11947;50.810;4.394;2022-12-29T11:53:47;15.30;;;2.47;;
23539;SDS011;11947;50.810;4.394;2022-12-29T11:56:17;16.35;;;2.47;;
23539;SDS011;11947;50.810;4.394;2022-12-29T11:58:45;18.30;;;3.20;;
23539;SDS011;11947;50.810;4.394;2022-12-29T12:01:30;17.00;;;2.72;;
23539;SDS011;11947;50.810;4.394;2022-12-29T12:04:07;13.90;;;2.65;;
23539;SDS011;11947;50.810;4.394;2022-12-29T12:06:44;17.27;;;2.60;;
23539;SDS011;11947;50.810;4.394;2022-12-29T12:09:19;19.95;;;2.80;;
23539;SDS011;11947;50.810;4.394;2022-12-29T12:11:51;18.63;;;2.70;;
23539;SDS011;11947;50.810;4.394;2022-12-29T12:14:34;23.52;;;2.90;;
23539;SDS011;11947;50.810;4.394;2022-12-29T12:17:16;20.95;;;2.97;;
23539;SDS011;11947;50.810;4.394;2022-12-29T12:22:37;17.00;;;2.78;;
23539;SDS011;11947;50.810;4.394;2022-12-29T12:25:18;19.60;;;2.78;;
23539;SDS011;11947;50.810;4.394;2022-12-29T12:28:05;14.77;;;2.50;;
23539;SDS011;11947;50.810;4.394;2022-12-29T12:30:47;12.77;;;2.15;;
23539;SDS011;11947;50.810;4.394;2022-12-29T12:33:19;18.70;;;2.50;;
23539;SDS011;11947;50.810;4.394;2022-12-29T12:44:19;22.77;;;3.90;;
23539;SDS011;11947;50.810;4.394;2022-12-29T13:00:13;16.70;;;3.03;;
23539;SDS011;11947;50.810;4.394;2022-12-29T13:05:21;16.50;;;2.72;;
23539;SDS011;11947;50.810;4.394;2022-12-29T13:16:22;13.20;;;3.15;;
23539;SDS011;11947;50.810;4.394;2022-12-29T13:24:30;18.27;;;3.45;;
23539;SDS011;11947;50.810;4.394;2022-12-29T13:27:16;16.80;;;3.85;;
23539;SDS011;11947;50.810;4.394;2022-12-29T13:30:03;18.38;;;3.67;;
23539;SDS011;11947;50.810;4.394;2022-12-29T13:38:20;14.43;;;2.72;;
23539;SDS011;11947;50.810;4.394;2022-12-29T13:40:50;17.05;;;3.22;;
23539;SDS011;11947;50.810;4.394;2022-12-29T13:43:20;14.95;;;2.70;;
23539;SDS011;11947;50.810;4.394;2022-12-29T13:45:55;18.95;;;3.15;;
23539;SDS011;11947;50.810;4.394;2022-12-29T13:48:31;21.70;;;3.70;;
23539;SDS011;11947;50.810;4.394;2022-12-29T13:51:16;15.10;;;3.22;;
23539;SDS011;11947;50.810;4.394;2022-12-29T13:56:39;18.77;;;2.97;;
23539;SDS011;11947;50.810;4.394;2022-12-29T14:02:07;18.50;;;3.55;;
23539;SDS011;11947;50.810;4.394;2022-12-29T14:04:55;24.42;;;2.72;;
23539;SDS011;11947;50.810;4.394;2022-12-29T14:07:29;16.67;;;2.80;;
23539;SDS011;11947;50.810;4.394;2022-12-29T14:10:00;20.55;;;3.30;;
23539;SDS011;11947;50.810;4.394;2022-12-29T14:15:02;13.18;;;3.03;;
23539;SDS011;11947;50.810;4.394;2022-12-29T14:17:34;22.67;;;3.17;;
23539;SDS011;11947;50.810;4.394;2022-12-29T14:20:00;21.90;;;3.08;;
23539;SDS011;11947;50.810;4.394;2022-12-29T14:22:27;15.40;;;3.25;;
23539;SDS011;11947;50.810;4.394;2022-12-29T14:24:53;19.02;;;3.60;;
23539;SDS011;11947;50.810;4.394;2022-12-29T14:29:45;25.83;;;4.93;;
23539;SDS011;11947;50.810;4.394;2022-12-29T14:34:53;24.55;;;3.60;;
23539;SDS011;11947;50.810;4.394;2022-12-29T14:40:03;18.13;;;3.17;;
23539;SDS011;11947;50.810;4.394;2022-12-29T14:42:37;15.25;;;2.97;;
23539;SDS011;11947;50.810;4.394;2022-12-29T14:47:40;20.48;;;2.83;;
23539;SDS011;11947;50.810;4.394;2022-12-29T14:50:15;14.85;;;3.05;;
23539;SDS011;11947;50.810;4.394;2022-12-29T14:52:54;21.95;;;3.17;;
23539;SDS011;11947;50.810;4.394;2022-12-29T14:55:30;17.02;;;2.90;;
23539;SDS011;11947;50.810;4.394;2022-12-29T14:58:18;19.13;;;2.92;;
23539;SDS011;11947;50.810;4.394;2022-12-29T15:00:45;17.52;;;3.20;;
23539;SDS011;11947;50.810;4.394;2022-12-29T15:08:38;17.10;;;3.60;;
23539;SDS011;11947;50.810;4.394;2022-12-29T15:11:32;14.77;;;2.55;;
23539;SDS011;11947;50.810;4.394;2022-12-29T15:16:53;12.25;;;3.25;;
23539;SDS011;11947;50.810;4.394;2022-12-29T15:19:23;11.15;;;2.50;;
23539;SDS011;11947;50.810;4.394;2022-12-29T15:21:49;16.40;;;2.22;;
23539;SDS011;11947;50.810;4.394;2022-12-29T15:24:15;9.00;;;1.65;;
23539;SDS011;11947;50.810;4.394;2022-12-29T15:26:42;10.38;;;1.55;;
23539;SDS011;11947;50.810;4.394;2022-12-29T15:31:59;14.88;;;2.03;;
23539;SDS011;11947;50.810;4.394;2022-12-29T15:34:29;12.38;;;1.77;;
23539;SDS011;11947;50.810;4.394;2022-12-29T15:36:55;16.38;;;2.10;;
23539;SDS011;11947;50.810;4.394;2022-12-29T15:39:27;12.30;;;2.17;;
23539;SDS011;11947;50.810;4.394;2022-12-29T15:42:03;13.68;;;2.00;;
23539;SDS011;11947;50.810;4.394;2022-12-29T15:44:37;10.07;;;2.20;;
23539;SDS011;11947;50.810;4.394;2022-12-29T15:47:05;12.48;;;2.40;;
23539;SDS011;11947;50.810;4.394;2022-12-29T15:49:43;16.73;;;3.00;;
23539;SDS011;11947;50.810;4.394;2022-12-29T15:52:13;11.65;;;2.78;;
23539;SDS011;11947;50.810;4.394;2022-12-29T15:54:43;12.80;;;3.10;;
23539;SDS011;11947;50.810;4.394;2022-12-29T15:57:24;18.67;;;3.70;;
23539;SDS011;11947;50.810;4.394;2022-12-29T15:59:52;15.57;;;4.07;;
23539;SDS011;11947;50.810;4.394;2022-12-29T16:02:18;23.13;;;6.00;;
23539;SDS011;11947;50.810;4.394;2022-12-29T16:04:46;30.75;;;5.50;;
23539;SDS011;11947;50.810;4.394;2022-12-29T16:07:27;37.25;;;10.80;;
23539;SDS011;11947;50.810;4.394;2022-12-29T16:09:58;21.02;;;5.43;;
23539;SDS011;11947;50.810;4.394;2022-12-29T16:12:32;20.95;;;6.68;;
23539;SDS011;11947;50.810;4.394;2022-12-29T16:15:07;24.85;;;5.55;;
23539;SDS011;11947;50.810;4.394;2022-12-29T16:17:48;22.88;;;6.50;;
23539;SDS011;11947;50.810;4.394;2022-12-29T16:20:20;31.10;;;8.85;;
23539;SDS011;11947;50.810;4.394;2022-12-29T16:22:49;30.95;;;8.63;;
23539;SDS011;11947;50.810;4.394;2022-12-29T16:25:24;28.42;;;6.57;;
23539;SDS011;11947;50.810;4.394;2022-12-29T16:27:54;31.95;;;8.70;;
23539;SDS011;11947;50.810;4.394;2022-12-29T16:30:20;37.13;;;7.70;;
23539;SDS011;11947;50.810;4.394;2022-12-29T16:32:51;27.58;;;6.65;;
23539;SDS011;11947;50.810;4.394;2022-12-29T16:35:23;35.60;;;6.10;;
23539;SDS011;11947;50.810;4.394;2022-12-29T16:40:33;35.42;;;6.85;;
23539;SDS011;11947;50.810;4.394;2022-12-29T16:43:03;35.25;;;8.75;;
23539;SDS011;11947;50.810;4.394;2022-12-29T16:50:39;33.50;;;5.82;;
23539;SDS011;11947;50.810;4.394;2022-12-29T16:53:15;40.80;;;6.13;;
23539;SDS011;11947;50.810;4.394;2022-12-29T16:55:47;33.30;;;5.88;;
23539;SDS011;11947;50.810;4.394;2022-12-29T16:58:16;56.38;;;6.63;;
23539;SDS011;11947;50.810;4.394;2022-12-29T17:00:46;40.28;;;6.50;;
23539;SDS011;11947;50.810;4.394;2022-12-29T17:03:12;34.63;;;5.07;;
23539;SDS011;11947;50.810;4.394;2022-12-29T17:05:39;49.05;;;8.88;;
23539;SDS011;11947;50.810;4.394;2022-12-29T17:08:15;25.50;;;5.80;;
23539;SDS011;11947;50.810;4.394;2022-12-29T17:13:36;39.08;;;6.82;;
23539;SDS011;11947;50.810;4.394;2022-12-29T17:16:02;32.80;;;7.63;;
23539;SDS011;11947;50.810;4.394;2022-12-29T17:18:28;30.45;;;6.28;;
23539;SDS011;11947;50.810;4.394;2022-12-29T17:20:54;34.10;;;6.72;;
23539;SDS011;11947;50.810;4.394;2022-12-29T17:23:19;33.88;;;6.15;;
23539;SDS011;11947;50.810;4.394;2022-12-29T17:25:45;27.52;;;5.35;;
23539;SDS011;11947;50.810;4.394;2022-12-29T17:30:47;27.67;;;5.18;;
23539;SDS011;11947;50.810;4.394;2022-12-29T17:33:15;31.00;;;4.85;;
23539;SDS011;11947;50.810;4.394;2022-12-29T17:35:42;27.15;;;4.45;;